sensor_id;sensor_type;location;lat;lon;timestamp;pressure;altitude;pressure_sealevel;temperature;humidity
49723;BME280;43484;43.608;1.458;2023-06-22T00:00:57;99094.69;;;21.84;100.00
49723;BME280;43484;43.608;1.458;2023-06-22T00:03:25;99107.56;;;21.90;100.00
49723;BME280;43484;43.608;1.458;2023-06-22T00:05:52;99105.06;;;21.87;100.00
49723;BME280;43484;43.608;1.458;2023-06-22T00:08:19;99117.09;;;21.91;100.00
49723;BME280;43484;43.608;1.458;2023-06-22T00:10:46;99118.50;;;21.38;100.00
49723;BME280;43484;43.608;1.458;2023-06-22T00:13:13;99118.78;;;21.26;100.00
49723;BME280;43484;43.608;1.458;2023-06-22T00:15:41;99108.00;;;21.06;100.00
49723;BME280;43484;43.608;1.458;2023-06-22T00:18:09;99108.50;;;21.20;100.00
49723;BME280;43484;43.608;1.458;2023-06-22T00:20:36;99088.97;;;21.38;100.00
49723;BME280;43484;43.608;1.458;2023-06-22T00:23:05;99090.59;;;21.42;100.00
49723;BME280;43484;43.608;1.458;2023-06-22T00:25:38;99074.53;;;21.58;100.00
49723;BME280;43484;43.608;1.458;2023-06-22T00:28:08;99070.34;;;21.85;100.00
49723;BME280;43484;43.608;1.458;2023-06-22T00:30:35;99065.22;;;21.80;100.00
49723;BME280;43484;43.608;1.458;2023-06-22T00:33:01;99061.19;;;21.69;100.00
49723;BME280;43484;43.608;1.458;2023-06-22T00:35:29;99070.13;;;21.59;100.00
49723;BME280;43484;43.608;1.458;2023-06-22T00:38:00;99074.69;;;21.84;100.00
49723;BME280;43484;43.608;1.458;2023-06-22T00:40:28;99089.66;;;21.76;100.00
49723;BME280;43484;43.608;1.458;2023-06-22T00:42:56;99079.66;;;21.93;100.00
49723;BME280;43484;43.608;1.458;2023-06-22T00:45:24;99090.16;;;21.90;100.00
49723;BME280;43484;43.608;1.458;2023-06-22T00:47:56;99089.09;;;21.97;100.00
49723;BME280;43484;43.608;1.458;2023-06-22T00:50:26;99103.47;;;22.12;100.00
49723;BME280;43484;43.608;1.458;2023-06-22T00:52:59;99112.03;;;22.17;100.00
49723;BME280;43484;43.608;1.458;2023-06-22T00:55:27;99106.38;;;22.30;100.00
49723;BME280;43484;43.608;1.458;2023-06-22T00:57:54;99113.91;;;22.41;100.00
49723;BME280;43484;43.608;1.458;2023-06-22T01:00:23;99120.22;;;22.32;100.00
49723;BME280;43484;43.608;1.458;2023-06-22T01:02:52;99102.88;;;22.31;100.00
49723;BME280;43484;43.608;1.458;2023-06-22T01:05:22;99106.88;;;22.14;100.00
49723;BME280;43484;43.608;1.458;2023-06-22T01:08:51;99112.44;;;22.02;100.00
49723;BME280;43484;43.608;1.458;2023-06-22T01:11:00;99118.09;;;21.85;100.00
49723;BME280;43484;43.608;1.458;2023-06-22T01:13:37;99116.53;;;21.80;100.00
49723;BME280;43484;43.608;1.458;2023-06-22T01:16:12;99118.47;;;21.72;100.00
49723;BME280;43484;43.608;1.458;2023-06-22T01:18:43;99117.09;;;21.91;100.00
49723;BME280;43484;43.608;1.458;2023-06-22T01:21:14;99105.44;;;21.72;100.00
49723;BME280;43484;43.608;1.458;2023-06-22T01:29:38;99120.81;;;21.49;100.00
49723;BME280;43484;43.608;1.458;2023-06-22T01:32:06;99129.84;;;21.36;100.00
49723;BME280;43484;43.608;1.458;2023-06-22T01:34:36;99143.34;;;21.51;100.00
49723;BME280;43484;43.608;1.458;2023-06-22T01:37:06;99144.84;;;21.26;100.00
49723;BME280;43484;43.608;1.458;2023-06-22T01:39:33;99160.19;;;21.03;100.00
49723;BME280;43484;43.608;1.458;2023-06-22T01:42:01;99183.00;;;20.90;100.00
49723;BME280;43484;43.608;1.458;2023-06-22T01:44:29;99169.81;;;20.99;100.00
49723;BME280;43484;43.608;1.458;2023-06-22T01:46:56;99187.38;;;20.88;100.00
49723;BME280;43484;43.608;1.458;2023-06-22T01:49:23;99196.03;;;20.89;100.00
49723;BME280;43484;43.608;1.458;2023-06-22T01:51:50;99191.59;;;20.94;100.00
49723;BME280;43484;43.608;1.458;2023-06-22T01:54:16;99178.44;;;21.01;100.00
49723;BME280;43484;43.608;1.458;2023-06-22T01:56:43;99174.41;;;21.24;100.00
49723;BME280;43484;43.608;1.458;2023-06-22T01:59:51;99175.84;;;21.00;100.00
49723;BME280;43484;43.608;1.458;2023-06-22T02:02:20;99181.38;;;20.85;100.00
49723;BME280;43484;43.608;1.458;2023-06-22T02:05:04;99191.25;;;20.71;100.00
49723;BME280;43484;43.608;1.458;2023-06-22T02:07:37;99211.31;;;20.66;100.00
49723;BME280;43484;43.608;1.458;2023-06-22T02:10:06;99210.25;;;20.74;100.00
49723;BME280;43484;43.608;1.458;2023-06-22T02:12:34;99203.22;;;20.79;100.00
49723;BME280;43484;43.608;1.458;2023-06-22T02:15:02;99195.88;;;20.98;100.00
49723;BME280;43484;43.608;1.458;2023-06-22T02:17:30;99212.22;;;20.63;100.00
49723;BME280;43484;43.608;1.458;2023-06-22T02:20:02;99209.19;;;20.84;100.00
49723;BME280;43484;43.608;1.458;2023-06-22T02:22:31;99216.72;;;20.96;100.00
49723;BME280;43484;43.608;1.458;2023-06-22T02:24:57;99232.69;;;20.81;100.00
49723;BME280;43484;43.608;1.458;2023-06-22T02:27:25;99260.09;;;20.55;100.00
49723;BME280;43484;43.608;1.458;2023-06-22T02:29:51;99257.22;;;20.68;100.00
49723;BME280;43484;43.608;1.458;2023-06-22T02:32:18;99261.78;;;20.59;100.00
49723;BME280;43484;43.608;1.458;2023-06-22T02:34:44;99275.59;;;20.62;100.00
49723;BME280;43484;43.608;1.458;2023-06-22T02:37:14;99287.97;;;20.50;100.00
49723;BME280;43484;43.608;1.458;2023-06-22T02:39:41;99285.22;;;20.57;100.00
49723;BME280;43484;43.608;1.458;2023-06-22T02:42:08;99286.19;;;20.52;100.00
49723;BME280;43484;43.608;1.458;2023-06-22T02:44:34;99291.19;;;20.62;100.00
49723;BME280;43484;43.608;1.458;2023-06-22T02:47:01;99292.34;;;20.49;100.00
49723;BME280;43484;43.608;1.458;2023-06-22T02:49:28;99283.59;;;20.52;100.00
49723;BME280;43484;43.608;1.458;2023-06-22T02:51:54;99283.59;;;20.52;100.00
49723;BME280;43484;43.608;1.458;2023-06-22T02:54:21;99271.06;;;20.70;100.00
49723;BME280;43484;43.608;1.458;2023-06-22T02:56:48;99274.50;;;20.72;100.00
49723;BME280;43484;43.608;1.458;2023-06-22T02:59:15;99272.16;;;20.60;100.00
49723;BME280;43484;43.608;1.458;2023-06-22T03:01:41;99251.66;;;20.44;100.00
49723;BME280;43484;43.608;1.458;2023-06-22T03:04:12;99245.63;;;20.42;100.00
49723;BME280;43484;43.608;1.458;2023-06-22T03:06:40;99234.00;;;20.59;100.00
49723;BME280;43484;43.608;1.458;2023-06-22T03:09:07;99239.22;;;20.59;100.00
49723;BME280;43484;43.608;1.458;2023-06-22T03:11:34;99231.16;;;20.71;100.00
49723;BME280;43484;43.608;1.458;2023-06-22T03:14:01;99228.44;;;20.76;100.00
49723;BME280;43484;43.608;1.458;2023-06-22T03:16:28;99233.72;;;20.73;100.00
49723;BME280;43484;43.608;1.458;2023-06-22T03:18:55;99230.22;;;20.74;100.00
49723;BME280;43484;43.608;1.458;2023-06-22T03:21:22;99234.56;;;20.73;100.00
49723;BME280;43484;43.608;1.458;2023-06-22T03:23:49;99241.25;;;20.85;100.00
49723;BME280;43484;43.608;1.458;2023-06-22T03:26:17;99241.91;;;20.97;100.00
49723;BME280;43484;43.608;1.458;2023-06-22T03:28:44;99252.28;;;20.99;100.00
49723;BME280;43484;43.608;1.458;2023-06-22T03:31:11;99251.78;;;21.20;100.00
49723;BME280;43484;43.608;1.458;2023-06-22T03:33:38;99252.53;;;21.27;100.00
49723;BME280;43484;43.608;1.458;2023-06-22T03:36:05;99265.56;;;21.25;100.00
49723;BME280;43484;43.608;1.458;2023-06-22T03:38:32;99272.38;;;21.32;100.00
49723;BME280;43484;43.608;1.458;2023-06-22T03:40:58;99286.41;;;21.25;100.00
49723;BME280;43484;43.608;1.458;2023-06-22T03:43:25;99288.34;;;21.17;100.00
49723;BME280;43484;43.608;1.458;2023-06-22T03:45:52;99292.50;;;21.26;100.00
49723;BME280;43484;43.608;1.458;2023-06-22T03:48:18;99281.16;;;21.28;100.00
49723;BME280;43484;43.608;1.458;2023-06-22T03:50:45;99281.84;;;21.36;100.00
49723;BME280;43484;43.608;1.458;2023-06-22T03:53:11;99290.91;;;21.18;100.00
49723;BME280;43484;43.608;1.458;2023-06-22T03:55:48;99288.22;;;21.23;100.00
49723;BME280;43484;43.608;1.458;2023-06-22T03:58:16;99280.97;;;20.96;100.00
49723;BME280;43484;43.608;1.458;2023-06-22T04:00:46;99266.41;;;20.86;100.00
49723;BME280;43484;43.608;1.458;2023-06-22T04:03:13;99254.69;;;20.65;100.00
49723;BME280;43484;43.608;1.458;2023-06-22T04:05:41;99244.63;;;20.90;100.00
49723;BME280;43484;43.608;1.458;2023-06-22T04:08:08;99235.19;;;20.86;100.00
49723;BME280;43484;43.608;1.458;2023-06-22T04:10:34;99220.13;;;21.00;100.00
49723;BME280;43484;43.608;1.458;2023-06-22T04:13:01;99213.59;;;20.81;100.00
49723;BME280;43484;43.608;1.458;2023-06-22T04:15:28;99218.09;;;20.73;100.00
49723;BME280;43484;43.608;1.458;2023-06-22T04:17:55;99227.31;;;20.87;100.00
49723;BME280;43484;43.608;1.458;2023-06-22T04:20:23;99221.09;;;20.94;100.00
49723;BME280;43484;43.608;1.458;2023-06-22T04:22:55;99222.19;;;20.84;100.00
49723;BME280;43484;43.608;1.458;2023-06-22T04:25:21;99232.78;;;20.75;100.00
49723;BME280;43484;43.608;1.458;2023-06-22T04:27:48;99230.81;;;20.88;100.00
49723;BME280;43484;43.608;1.458;2023-06-22T04:30:15;99222.25;;;20.81;100.00
49723;BME280;43484;43.608;1.458;2023-06-22T04:32:43;99221.28;;;20.85;100.00
49723;BME280;43484;43.608;1.458;2023-06-22T04:35:11;99222.03;;;20.90;100.00
49723;BME280;43484;43.608;1.458;2023-06-22T04:37:38;99226.94;;;21.05;100.00
49723;BME280;43484;43.608;1.458;2023-06-22T04:40:06;99232.75;;;21.18;100.00
49723;BME280;43484;43.608;1.458;2023-06-22T04:42:35;99243.75;;;21.31;100.00
49723;BME280;43484;43.608;1.458;2023-06-22T04:45:03;99265.41;;;21.33;100.00
49723;BME280;43484;43.608;1.458;2023-06-22T04:47:31;99279.00;;;21.07;100.00
49723;BME280;43484;43.608;1.458;2023-06-22T04:49:57;99287.34;;;21.23;100.00
49723;BME280;43484;43.608;1.458;2023-06-22T04:52:24;99297.75;;;21.24;100.00
49723;BME280;43484;43.608;1.458;2023-06-22T04:54:51;99305.28;;;21.36;100.00
49723;BME280;43484;43.608;1.458;2023-06-22T04:57:22;99313.03;;;21.39;100.00
49723;BME280;43484;43.608;1.458;2023-06-22T05:00:00;99316.41;;;21.44;100.00
49723;BME280;43484;43.608;1.458;2023-06-22T05:02:39;99325.03;;;21.46;100.00
49723;BME280;43484;43.608;1.458;2023-06-22T05:05:06;99333.88;;;21.39;100.00
49723;BME280;43484;43.608;1.458;2023-06-22T05:07:34;99336.44;;;21.41;100.00
49723;BME280;43484;43.608;1.458;2023-06-22T05:10:02;99324.28;;;21.41;100.00
49723;BME280;43484;43.608;1.458;2023-06-22T05:12:29;99327.41;;;21.17;100.00
49723;BME280;43484;43.608;1.458;2023-06-22T05:14:57;99322.59;;;20.99;100.00
49723;BME280;43484;43.608;1.458;2023-06-22T05:17:24;99302.66;;;20.96;100.00
49723;BME280;43484;43.608;1.458;2023-06-22T05:19:51;99302.22;;;20.76;100.00
49723;BME280;43484;43.608;1.458;2023-06-22T05:22:18;99294.41;;;20.76;100.00
49723;BME280;43484;43.608;1.458;2023-06-22T05:24:45;99291.81;;;20.31;100.00
49723;BME280;43484;43.608;1.458;2023-06-22T05:27:13;99280.22;;;20.47;100.00
49723;BME280;43484;43.608;1.458;2023-06-22T05:29:41;99271.28;;;20.61;100.00
49723;BME280;43484;43.608;1.458;2023-06-22T05:32:09;99285.88;;;20.68;100.00
49723;BME280;43484;43.608;1.458;2023-06-22T05:34:36;99280.97;;;20.53;100.00
49723;BME280;43484;43.608;1.458;2023-06-22T05:37:03;99282.53;;;20.62;100.00
49723;BME280;43484;43.608;1.458;2023-06-22T05:39:30;99280.66;;;20.68;100.00
49723;BME280;43484;43.608;1.458;2023-06-22T05:41:56;99282.84;;;20.89;100.00
49723;BME280;43484;43.608;1.458;2023-06-22T05:44:23;99291.13;;;20.65;100.00
49723;BME280;43484;43.608;1.458;2023-06-22T05:46:50;99288.00;;;20.91;100.00
49723;BME280;43484;43.608;1.458;2023-06-22T05:49:16;99300.06;;;20.95;100.00
49723;BME280;43484;43.608;1.458;2023-06-22T05:51:43;99306.75;;;21.09;100.00
49723;BME280;43484;43.608;1.458;2023-06-22T05:54:10;99331.13;;;21.05;100.00
49723;BME280;43484;43.608;1.458;2023-06-22T05:56:39;99332.81;;;21.09;100.00
49723;BME280;43484;43.608;1.458;2023-06-22T05:59:06;99338.84;;;21.10;100.00
49723;BME280;43484;43.608;1.458;2023-06-22T06:01:33;99345.00;;;21.07;100.00
49723;BME280;43484;43.608;1.458;2023-06-22T06:04:03;99335.13;;;21.23;100.00
49723;BME280;43484;43.608;1.458;2023-06-22T06:06:31;99341.13;;;21.27;100.00
49723;BME280;43484;43.608;1.458;2023-06-22T06:08:58;99341.91;;;21.29;100.00
49723;BME280;43484;43.608;1.458;2023-06-22T06:11:26;99341.88;;;21.30;100.00
49723;BME280;43484;43.608;1.458;2023-06-22T06:13:53;99346.13;;;21.36;100.00
49723;BME280;43484;43.608;1.458;2023-06-22T06:16:19;99357.63;;;21.26;100.00
49723;BME280;43484;43.608;1.458;2023-06-22T06:18:49;99362.50;;;21.41;100.00
49723;BME280;43484;43.608;1.458;2023-06-22T06:21:17;99357.16;;;21.48;100.00
49723;BME280;43484;43.608;1.458;2023-06-22T06:23:44;99364.09;;;21.48;100.00
49723;BME280;43484;43.608;1.458;2023-06-22T06:26:10;99366.44;;;21.60;100.00
49723;BME280;43484;43.608;1.458;2023-06-22T06:28:37;99372.28;;;21.69;100.00
49723;BME280;43484;43.608;1.458;2023-06-22T06:31:04;99377.38;;;21.77;100.00
49723;BME280;43484;43.608;1.458;2023-06-22T06:33:34;99389.53;;;21.76;100.00
49723;BME280;43484;43.608;1.458;2023-06-22T06:36:01;99398.22;;;21.75;100.00
49723;BME280;43484;43.608;1.458;2023-06-22T06:38:30;99411.44;;;21.68;100.00
49723;BME280;43484;43.608;1.458;2023-06-22T06:40:58;99424.41;;;21.71;100.00
49723;BME280;43484;43.608;1.458;2023-06-22T06:43:24;99423.41;;;21.78;100.00
49723;BME280;43484;43.608;1.458;2023-06-22T06:45:51;99440.72;;;21.80;100.00
49723;BME280;43484;43.608;1.458;2023-06-22T06:48:18;99437.66;;;22.01;100.00
49723;BME280;43484;43.608;1.458;2023-06-22T06:50:45;99453.34;;;22.00;100.00
49723;BME280;43484;43.608;1.458;2023-06-22T06:53:12;99462.25;;;21.91;100.00
49723;BME280;43484;43.608;1.458;2023-06-22T06:55:38;99463.88;;;21.97;100.00
49723;BME280;43484;43.608;1.458;2023-06-22T06:58:05;99466.16;;;22.09;100.00
49723;BME280;43484;43.608;1.458;2023-06-22T07:00:34;99473.91;;;22.13;100.00
49723;BME280;43484;43.608;1.458;2023-06-22T07:03:02;99497.19;;;21.83;100.00
49723;BME280;43484;43.608;1.458;2023-06-22T07:05:29;99483.09;;;21.91;100.00
49723;BME280;43484;43.608;1.458;2023-06-22T07:07:55;99484.06;;;21.45;100.00
49723;BME280;43484;43.608;1.458;2023-06-22T07:10:22;99480.53;;;21.47;100.00
49723;BME280;43484;43.608;1.458;2023-06-22T07:12:49;99460.84;;;21.77;100.00
49723;BME280;43484;43.608;1.458;2023-06-22T07:15:15;99475.44;;;21.84;100.00
49723;BME280;43484;43.608;1.458;2023-06-22T07:17:42;99480.88;;;22.13;100.00
49723;BME280;43484;43.608;1.458;2023-06-22T07:20:09;99517.56;;;22.05;100.00
49723;BME280;43484;43.608;1.458;2023-06-22T07:22:39;99539.16;;;22.13;100.00
49723;BME280;43484;43.608;1.458;2023-06-22T07:25:07;99559.84;;;22.21;100.00
49723;BME280;43484;43.608;1.458;2023-06-22T07:27:38;99582.56;;;22.16;100.00
49723;BME280;43484;43.608;1.458;2023-06-22T07:30:06;99571.22;;;22.18;100.00
49723;BME280;43484;43.608;1.458;2023-06-22T07:32:33;99586.06;;;22.15;100.00
49723;BME280;43484;43.608;1.458;2023-06-22T07:35:00;99593.84;;;22.18;100.00
49723;BME280;43484;43.608;1.458;2023-06-22T07:37:28;99597.44;;;22.11;100.00
49723;BME280;43484;43.608;1.458;2023-06-22T07:39:55;99608.59;;;22.19;100.00
49723;BME280;43484;43.608;1.458;2023-06-22T07:42:26;99617.13;;;21.84;100.00
49723;BME280;43484;43.608;1.458;2023-06-22T07:44:53;99611.19;;;21.78;100.00
49723;BME280;43484;43.608;1.458;2023-06-22T07:47:20;99621.72;;;22.14;100.00
49723;BME280;43484;43.608;1.458;2023-06-22T07:49:52;99675.56;;;21.73;100.00
49723;BME280;43484;43.608;1.458;2023-06-22T07:52:21;99716.59;;;22.10;100.00
49723;BME280;43484;43.608;1.458;2023-06-22T07:54:48;99781.72;;;22.18;100.00
49723;BME280;43484;43.608;1.458;2023-06-22T07:57:14;99785.72;;;22.35;100.00
49723;BME280;43484;43.608;1.458;2023-06-22T07:59:41;99819.59;;;22.40;100.00
49723;BME280;43484;43.608;1.458;2023-06-22T08:02:08;99827.06;;;22.60;100.00
49723;BME280;43484;43.608;1.458;2023-06-22T08:04:36;99852.97;;;22.72;100.00
49723;BME280;43484;43.608;1.458;2023-06-22T08:07:03;99852.84;;;22.76;100.00
49723;BME280;43484;43.608;1.458;2023-06-22T08:09:31;99863.63;;;23.04;100.00
49723;BME280;43484;43.608;1.458;2023-06-22T08:11:59;99870.94;;;22.39;100.00
49723;BME280;43484;43.608;1.458;2023-06-22T08:14:26;99863.69;;;23.01;100.00
49723;BME280;43484;43.608;1.458;2023-06-22T08:16:53;99892.91;;;22.77;100.00
49723;BME280;43484;43.608;1.458;2023-06-22T08:19:20;99888.84;;;23.06;100.00
49723;BME280;43484;43.608;1.458;2023-06-22T08:21:47;99881.00;;;22.62;100.00
49723;BME280;43484;43.608;1.458;2023-06-22T08:24:14;99881.09;;;22.56;100.00
49723;BME280;43484;43.608;1.458;2023-06-22T08:26:40;99888.13;;;22.51;100.00
49723;BME280;43484;43.608;1.458;2023-06-22T08:29:07;99886.88;;;22.23;100.00
49723;BME280;43484;43.608;1.458;2023-06-22T08:31:34;99888.31;;;22.42;100.00
49723;BME280;43484;43.608;1.458;2023-06-22T08:34:01;99879.50;;;22.46;100.00
49723;BME280;43484;43.608;1.458;2023-06-22T08:36:28;99894.44;;;22.39;100.00
49723;BME280;43484;43.608;1.458;2023-06-22T08:38:59;99882.03;;;22.02;100.00
49723;BME280;43484;43.608;1.458;2023-06-22T08:41:28;99858.00;;;21.80;100.00
49723;BME280;43484;43.608;1.458;2023-06-22T08:43:55;99831.78;;;21.89;100.00
49723;BME280;43484;43.608;1.458;2023-06-22T08:46:22;99827.47;;;21.88;100.00
49723;BME280;43484;43.608;1.458;2023-06-22T08:48:51;99805.38;;;22.07;100.00
49723;BME280;43484;43.608;1.458;2023-06-22T08:51:18;99792.88;;;21.74;100.00
49723;BME280;43484;43.608;1.458;2023-06-22T08:53:44;99800.00;;;21.65;100.00
49723;BME280;43484;43.608;1.458;2023-06-22T08:56:11;99783.84;;;21.42;100.00
49723;BME280;43484;43.608;1.458;2023-06-22T08:58:38;99748.59;;;21.71;100.00
49723;BME280;43484;43.608;1.458;2023-06-22T09:01:04;99724.22;;;21.77;100.00
49723;BME280;43484;43.608;1.458;2023-06-22T09:03:31;99713.59;;;21.34;100.00
49723;BME280;43484;43.608;1.458;2023-06-22T09:05:59;99674.41;;;21.39;100.00
49723;BME280;43484;43.608;1.458;2023-06-22T09:08:26;99644.41;;;21.17;100.00
49723;BME280;43484;43.608;1.458;2023-06-22T09:10:53;99612.09;;;21.27;100.00
49723;BME280;43484;43.608;1.458;2023-06-22T09:13:19;99594.13;;;21.10;100.00
49723;BME280;43484;43.608;1.458;2023-06-22T09:15:46;99582.66;;;20.65;100.00
49723;BME280;43484;43.608;1.458;2023-06-22T09:18:13;99572.38;;;20.59;100.00
49723;BME280;43484;43.608;1.458;2023-06-22T09:20:40;99552.94;;;20.80;100.00
49723;BME280;43484;43.608;1.458;2023-06-22T09:23:07;99536.03;;;21.05;100.00
49723;BME280;43484;43.608;1.458;2023-06-22T09:25:34;99542.66;;;20.72;100.00
49723;BME280;43484;43.608;1.458;2023-06-22T09:28:00;99535.44;;;20.89;100.00
49723;BME280;43484;43.608;1.458;2023-06-22T09:30:27;99543.19;;;20.92;100.00
49723;BME280;43484;43.608;1.458;2023-06-22T09:32:54;99545.88;;;20.88;100.00
49723;BME280;43484;43.608;1.458;2023-06-22T09:35:21;99550.13;;;20.92;100.00
49723;BME280;43484;43.608;1.458;2023-06-22T09:37:48;99542.03;;;21.11;100.00
49723;BME280;43484;43.608;1.458;2023-06-22T09:40:14;99538.28;;;21.26;100.00
49723;BME280;43484;43.608;1.458;2023-06-22T09:42:43;99531.94;;;21.39;100.00
49723;BME280;43484;43.608;1.458;2023-06-22T09:45:10;99535.38;;;21.41;100.00
49723;BME280;43484;43.608;1.458;2023-06-22T09:47:37;99541.38;;;21.46;100.00
49723;BME280;43484;43.608;1.458;2023-06-22T09:50:05;99543.75;;;21.58;100.00
49723;BME280;43484;43.608;1.458;2023-06-22T09:52:32;99549.81;;;21.59;100.00
49723;BME280;43484;43.608;1.458;2023-06-22T09:55:13;99560.88;;;21.71;100.00
49723;BME280;43484;43.608;1.458;2023-06-22T09:57:41;99578.28;;;21.22;100.00
49723;BME280;43484;43.608;1.458;2023-06-22T10:00:09;99564.34;;;21.72;100.00
49723;BME280;43484;43.608;1.458;2023-06-22T10:02:35;99566.41;;;21.99;100.00
49723;BME280;43484;43.608;1.458;2023-06-22T10:05:02;99582.06;;;21.53;100.00
49723;BME280;43484;43.608;1.458;2023-06-22T10:07:30;99590.91;;;21.90;100.00
49723;BME280;43484;43.608;1.458;2023-06-22T10:09:57;99622.22;;;21.92;100.00
49723;BME280;43484;43.608;1.458;2023-06-22T10:12:23;99649.06;;;21.97;100.00
49723;BME280;43484;43.608;1.458;2023-06-22T10:14:50;99678.69;;;21.93;100.00
49723;BME280;43484;43.608;1.458;2023-06-22T10:17:17;99687.84;;;22.15;100.00
49723;BME280;43484;43.608;1.458;2023-06-22T10:19:43;99695.69;;;22.13;100.00
49723;BME280;43484;43.608;1.458;2023-06-22T10:22:10;99737.63;;;22.03;100.00
49723;BME280;43484;43.608;1.458;2023-06-22T10:24:37;99799.09;;;22.19;100.00
49723;BME280;43484;43.608;1.458;2023-06-22T10:27:05;99824.56;;;22.05;100.00
49723;BME280;43484;43.608;1.458;2023-06-22T10:29:31;99861.69;;;22.22;100.00
49723;BME280;43484;43.608;1.458;2023-06-22T10:31:58;99901.88;;;22.12;100.00
49723;BME280;43484;43.608;1.458;2023-06-22T10:34:24;99877.81;;;22.45;100.00
49723;BME280;43484;43.608;1.458;2023-06-22T10:36:51;99919.59;;;22.44;100.00
49723;BME280;43484;43.608;1.458;2023-06-22T10:39:18;99950.09;;;22.42;100.00
49723;BME280;43484;43.608;1.458;2023-06-22T10:41:44;99949.53;;;22.75;100.00
49723;BME280;43484;43.608;1.458;2023-06-22T10:44:11;99985.72;;;22.96;100.00
49723;BME280;43484;43.608;1.458;2023-06-22T10:46:38;99994.81;;;22.75;100.00
49723;BME280;43484;43.608;1.458;2023-06-22T10:49:05;99977.31;;;22.80;100.00
49723;BME280;43484;43.608;1.458;2023-06-22T10:51:32;100000.28;;;23.10;100.00
49723;BME280;43484;43.608;1.458;2023-06-22T10:54:00;100031.50;;;23.16;100.00
49723;BME280;43484;43.608;1.458;2023-06-22T10:56:26;100041.78;;;23.28;100.00
49723;BME280;43484;43.608;1.458;2023-06-22T10:58:53;100053.22;;;23.67;100.00
49723;BME280;43484;43.608;1.458;2023-06-22T11:01:20;100067.84;;;23.77;100.00
49723;BME280;43484;43.608;1.458;2023-06-22T11:04:00;100069.72;;;23.71;100.00
49723;BME280;43484;43.608;1.458;2023-06-22T11:06:28;100070.28;;;23.85;100.00
49723;BME280;43484;43.608;1.458;2023-06-22T11:08:54;100079.53;;;24.04;100.00
49723;BME280;43484;43.608;1.458;2023-06-22T11:11:37;100084.91;;;23.96;100.00
49723;BME280;43484;43.608;1.458;2023-06-22T11:14:04;100088.31;;;24.01;100.00
49723;BME280;43484;43.608;1.458;2023-06-22T11:16:31;100080.16;;;24.16;100.00
49723;BME280;43484;43.608;1.458;2023-06-22T11:18:57;100086.78;;;24.31;100.00
49723;BME280;43484;43.608;1.458;2023-06-22T11:21:24;100095.97;;;24.48;100.00
49723;BME280;43484;43.608;1.458;2023-06-22T11:23:51;100082.56;;;24.62;100.00
49723;BME280;43484;43.608;1.458;2023-06-22T11:26:17;100095.53;;;24.30;100.00
49723;BME280;43484;43.608;1.458;2023-06-22T11:28:44;100092.28;;;24.19;100.00
49723;BME280;43484;43.608;1.458;2023-06-22T11:31:11;100097.38;;;24.26;100.00
49723;BME280;43484;43.608;1.458;2023-06-22T11:33:57;100091.25;;;24.27;100.00
49723;BME280;43484;43.608;1.458;2023-06-22T11:36:25;100091.41;;;24.58;100.00
49723;BME280;43484;43.608;1.458;2023-06-22T11:38:51;100101.63;;;24.70;100.00
49723;BME280;43484;43.608;1.458;2023-06-22T11:41:18;100099.41;;;24.52;100.00
49723;BME280;43484;43.608;1.458;2023-06-22T11:43:45;100088.75;;;24.59;100.00
49723;BME280;43484;43.608;1.458;2023-06-22T11:46:12;100094.19;;;24.89;100.00
49723;BME280;43484;43.608;1.458;2023-06-22T11:48:38;100096.56;;;24.61;100.00
49723;BME280;43484;43.608;1.458;2023-06-22T11:51:06;100101.59;;;24.32;100.00
49723;BME280;43484;43.608;1.458;2023-06-22T11:53:34;100103.28;;;24.74;100.00
49723;BME280;43484;43.608;1.458;2023-06-22T11:56:01;100093.00;;;25.00;100.00
49723;BME280;43484;43.608;1.458;2023-06-22T11:58:28;100091.44;;;24.95;100.00
49723;BME280;43484;43.608;1.458;2023-06-22T12:00:55;100096.41;;;25.04;100.00
49723;BME280;43484;43.608;1.458;2023-06-22T12:03:22;100089.22;;;25.13;100.00
49723;BME280;43484;43.608;1.458;2023-06-22T12:05:50;100092.41;;;25.24;100.00
49723;BME280;43484;43.608;1.458;2023-06-22T12:08:18;100095.91;;;25.25;100.00
49723;BME280;43484;43.608;1.458;2023-06-22T12:10:45;100086.16;;;24.96;100.00
49723;BME280;43484;43.608;1.458;2023-06-22T12:13:12;100083.25;;;25.07;100.00
49723;BME280;43484;43.608;1.458;2023-06-22T12:15:39;100091.50;;;25.25;100.00
49723;BME280;43484;43.608;1.458;2023-06-22T12:18:05;100082.13;;;25.15;100.00
49723;BME280;43484;43.608;1.458;2023-06-22T12:20:33;100076.84;;;25.18;100.00
49723;BME280;43484;43.608;1.458;2023-06-22T12:22:59;100073.50;;;25.45;100.00
49723;BME280;43484;43.608;1.458;2023-06-22T12:25:26;100072.31;;;25.57;100.00
49723;BME280;43484;43.608;1.458;2023-06-22T12:27:53;100063.50;;;25.90;100.00
49723;BME280;43484;43.608;1.458;2023-06-22T12:30:20;100068.38;;;26.04;100.00
49723;BME280;43484;43.608;1.458;2023-06-22T12:32:46;100075.03;;;25.84;100.00
49723;BME280;43484;43.608;1.458;2023-06-22T12:35:13;100083.41;;;25.97;100.00
49723;BME280;43484;43.608;1.458;2023-06-22T12:37:43;100074.78;;;25.63;100.00
49723;BME280;43484;43.608;1.458;2023-06-22T12:40:10;100087.72;;;25.69;100.00
49723;BME280;43484;43.608;1.458;2023-06-22T12:42:37;100087.94;;;25.61;100.00
49723;BME280;43484;43.608;1.458;2023-06-22T12:45:05;100094.38;;;25.50;100.00
49723;BME280;43484;43.608;1.458;2023-06-22T12:47:32;100091.16;;;25.39;100.00
49723;BME280;43484;43.608;1.458;2023-06-22T12:49:58;100084.84;;;25.46;100.00
49723;BME280;43484;43.608;1.458;2023-06-22T12:52:25;100096.59;;;25.31;100.00
49723;BME280;43484;43.608;1.458;2023-06-22T12:54:52;100101.66;;;25.39;100.00
49723;BME280;43484;43.608;1.458;2023-06-22T12:57:21;100110.88;;;25.20;100.00